Time;durP1;ratioP1;P1;durP2;ratioP2;P2;SDS_P1;SDS_P2;PMS_P1;PMS_P2;Temp;Humidity;BMP_temperature;BMP_pressure;BME280_temperature;BME280_humidity;BME280_pressure;Samples;Min_cycle;Max_cycle;Signal;HPM_P1;HPM_P2
2023/12/09 00:00:38;;;;;;;85.72;19.73;;;;;;;;;;5885361;24;20035;-84
2023/12/09 00:03:48;;;;;;;78.00;19.67;;;;;;;;;;5907375;24;20021;-84
2023/12/09 00:23:07;;;;;;;65.55;18.73;;;;;;;;;;5850893;24;20510;-84
2023/12/09 00:26:00;;;;;;;76.53;20.38;;;;;;;;;;5812471;24;20021;-84
2023/12/09 00:52:19;;;;;;;;;;;;;;;;;;;;;
2023/12/09 00:58:46;;;;;;;63.70;18.33;;;;;;;;;;6044488;23;20049;-85
2023/12/09 01:01:59;;;;;;;62.05;18.63;;;;;;;;;;6050421;23;20070;-85
2023/12/09 01:05:29;;;;;;;;;;;;;;;;;;;;;
2023/12/09 01:09:02;;;;;;;66.05;18.27;;;;;;;;;;5802072;24;20019;-86
2023/12/09 01:12:07;;;;;;;62.50;18.52;;;;;;;;;;5791951;24;20090;-85
2023/12/09 01:15:11;;;;;;;54.17;18.38;;;;;;;;;;5802428;24;20069;-85
2023/12/09 01:18:04;;;;;;;60.45;19.30;;;;;;;;;;5757411;24;20030;-85
2023/12/09 01:20:55;;;;;;;65.05;17.17;;;;;;;;;;5777207;24;20331;-85
2023/12/09 01:23:37;;;;;;;;;;;;;;;;;;5905461;24;20020;-84
2023/12/09 01:26:30;;;;;;;;;;;;;;;;;;5978131;23;19918;-85
2023/12/09 01:32:37;;;;;;;54.78;18.63;;;;;;;;;;5918001;24;20080;-85
2023/12/09 01:35:38;;;;;;;61.25;17.85;;;;;;;;;;5967053;23;20399;-85
2023/12/09 01:41:53;;;;;;;;;;;;;;;;;;5970890;23;20020;-85
2023/12/09 01:44:28;;;;;;;59.90;17.60;;;;;;;;;;5974686;23;19922;-85
2023/12/09 01:47:39;;;;;;;;;;;;;;;;;;;;;
2023/12/09 01:53:46;;;;;;;58.55;18.15;;;;;;;;;;5965670;23;20019;-85
2023/12/09 01:56:45;;;;;;;;;;;;;;;;;;;;;
2023/12/09 02:03:00;;;;;;;57.90;17.92;;;;;;;;;;5909249;24;20021;-85
2023/12/09 02:05:59;;;;;;;58.53;18.70;;;;;;;;;;5837877;24;20535;-85
2023/12/09 02:08:51;;;;;;;56.85;17.30;;;;;;;;;;5782297;24;20090;-85
2023/12/09 02:11:47;;;;;;;;;;;;;;;;;;;;;
2023/12/09 02:14:24;;;;;;;54.42;18.63;;;;;;;;;;5775805;24;20038;-86
2023/12/09 02:20:37;;;;;;;48.25;17.63;;;;;;;;;;5753799;24;20046;-85
2023/12/09 02:36:47;;;;;;;49.88;16.63;;;;;;;;;;5697902;25;20033;-86
2023/12/09 02:39:42;;;;;;;;;;;;;;;;;;;;;
2023/12/09 02:42:30;;;;;;;51.78;17.92;;;;;;;;;;5832046;24;20066;-86
2023/12/09 02:45:48;;;;;;;;;;;;;;;;;;;;;
2023/12/09 02:49:03;;;;;;;42.00;15.30;;;;;;;;;;5841151;24;20100;-85
2023/12/09 02:51:38;;;;;;;;;;;;;;;;;;5794628;24;20026;-85
2023/12/09 02:54:30;;;;;;;57.40;16.98;;;;;;;;;;5958502;23;19922;-85
2023/12/09 03:04:18;;;;;;;47.58;13.82;;;;;;;;;;5740959;24;21128;-85
2023/12/09 03:07:08;;;;;;;56.00;17.00;;;;;;;;;;5780384;24;20030;-85
2023/12/09 03:17:30;;;;;;;53.63;16.52;;;;;;;;;;6175007;23;20039;-85
2023/12/09 03:20:08;;;;;;;46.33;16.92;;;;;;;;;;6110547;23;20109;-85
2023/12/09 03:22:36;;;;;;;40.08;14.90;;;;;;;;;;6090777;23;20344;-85
2023/12/09 03:25:09;;;;;;;45.88;14.80;;;;;;;;;;6095552;23;20072;-85
2023/12/09 03:27:49;;;;;;;;;;;;;;;;;;;;;
2023/12/09 03:30:22;;;;;;;43.40;15.38;;;;;;;;;;6094949;23;20021;-85
2023/12/09 03:33:10;;;;;;;39.35;14.18;;;;;;;;;;6105461;23;20025;-84
2023/12/09 03:35:45;;;;;;;47.88;14.88;;;;;;;;;;6091789;23;20382;-84
2023/12/09 03:46:37;;;;;;;36.40;13.98;;;;;;;;;;6140119;23;20048;-84
2023/12/09 03:49:08;;;;;;;39.22;14.43;;;;;;;;;;6028452;23;20079;-84
2023/12/09 03:51:38;;;;;;;45.72;14.27;;;;;;;;;;6086689;23;20477;-84
2023/12/09 03:54:25;;;;;;;;;;;;;;;;;;;;;
2023/12/09 03:57:03;;;;;;;44.55;13.80;;;;;;;;;;6105927;23;20881;-84
2023/12/09 03:59:36;;;;;;;;;;;;;;;;;;6095117;23;20021;-84
2023/12/09 04:02:05;;;;;;;40.72;13.57;;;;;;;;;;6140263;23;19912;-83
2023/12/09 04:04:51;;;;;;;36.03;13.70;;;;;;;;;;6142746;23;20077;-84
2023/12/09 04:07:50;;;;;;;;;;;;;;;;;;;;;
2023/12/09 04:10:29;;;;;;;;;;;;;;;;;;;;;
2023/12/09 04:13:27;;;;;;;31.42;13.13;;;;;;;;;;6141918;23;20017;-84
2023/12/09 04:16:10;;;;;;;;;;;;;;;;;;;;;
2023/12/09 04:18:50;;;;;;;34.97;13.00;;;;;;;;;;6145056;23;20017;-85
2023/12/09 04:21:30;;;;;;;39.92;12.68;;;;;;;;;;6143615;23;20070;-85
2023/12/09 04:24:15;;;;;;;29.13;11.32;;;;;;;;;;6140040;23;20009;-84
2023/12/09 04:26:52;;;;;;;38.42;11.32;;;;;;;;;;6111146;23;20028;-85
2023/12/09 04:29:26;;;;;;;32.13;12.52;;;;;;;;;;6143223;23;20025;-85
2023/12/09 04:32:06;;;;;;;35.17;11.23;;;;;;;;;;6090912;23;20021;-84
2023/12/09 04:34:40;;;;;;;33.42;11.40;;;;;;;;;;6117415;23;20116;-84
2023/12/09 04:37:14;;;;;;;31.85;12.18;;;;;;;;;;6091474;23;20080;-84
2023/12/09 04:39:53;;;;;;;37.95;11.93;;;;;;;;;;6141432;23;20063;-84
2023/12/09 04:42:20;;;;;;;35.30;12.75;;;;;;;;;;6081008;23;20054;-84
2023/12/09 04:44:52;;;;;;;26.60;10.38;;;;;;;;;;6015805;23;20027;-84
2023/12/09 04:47:52;;;;;;;;;;;;;;;;;;;;;
2023/12/09 04:50:30;;;;;;;32.63;11.50;;;;;;;;;;6027111;23;20073;-84
2023/12/09 04:53:15;;;;;;;33.83;11.57;;;;;;;;;;6000121;23;20026;-84
2023/12/09 04:56:02;;;;;;;35.88;12.20;;;;;;;;;;6005030;23;20041;-84
2023/12/09 04:58:39;;;;;;;32.42;12.43;;;;;;;;;;6029979;23;20018;-84
2023/12/09 05:01:13;;;;;;;31.92;10.80;;;;;;;;;;6052211;23;20046;-85
2023/12/09 05:03:47;;;;;;;37.50;11.85;;;;;;;;;;5974650;23;20098;-85
2023/12/09 05:06:20;;;;;;;31.27;11.40;;;;;;;;;;5948970;23;20062;-85
2023/12/09 05:08:57;;;;;;;33.63;9.85;;;;;;;;;;5975803;23;20028;-84
2023/12/09 05:11:28;;;;;;;27.08;10.68;;;;;;;;;;5952475;23;20024;-84
2023/12/09 05:13:57;;;;;;;35.80;10.63;;;;;;;;;;6011039;23;20027;-85
2023/12/09 05:16:27;;;;;;;29.10;10.57;;;;;;;;;;6032924;23;20022;-84
2023/12/09 05:18:56;;;;;;;31.50;10.57;;;;;;;;;;6032193;23;20050;-85
2023/12/09 05:21:25;;;;;;;31.15;10.70;;;;;;;;;;6031049;23;20722;-84
2023/12/09 05:24:04;;;;;;;30.90;10.52;;;;;;;;;;6031378;23;20038;-84
2023/12/09 05:26:32;;;;;;;31.92;10.65;;;;;;;;;;6034314;23;20015;-84
2023/12/09 05:29:05;;;;;;;27.20;10.68;;;;;;;;;;6030450;23;20033;-85
2023/12/09 05:31:36;;;;;;;28.80;9.80;;;;;;;;;;6007015;23;20158;-85
2023/12/09 05:34:20;;;;;;;35.30;11.40;;;;;;;;;;6063524;23;20032;-84
2023/12/09 05:37:09;;;;;;;34.13;11.15;;;;;;;;;;6118854;23;20022;-85
2023/12/09 05:39:54;;;;;;;34.97;12.48;;;;;;;;;;6099191;23;20018;-85
2023/12/09 05:42:26;;;;;;;34.92;11.77;;;;;;;;;;6120445;23;20092;-85
2023/12/09 05:45:02;;;;;;;36.50;11.57;;;;;;;;;;6092124;23;20021;-84
2023/12/09 05:47:48;;;;;;;28.63;11.23;;;;;;;;;;6087314;23;20470;-84
2023/12/09 05:50:19;;;;;;;34.95;12.02;;;;;;;;;;6120059;23;20014;-85
2023/12/09 05:53:04;;;;;;;26.17;12.18;;;;;;;;;;6116836;23;20680;-85
2023/12/09 05:55:42;;;;;;;36.03;11.50;;;;;;;;;;6119390;23;20014;-85
2023/12/09 06:01:47;;;;;;;30.33;10.48;;;;;;;;;;5968027;24;20024;-84
2023/12/09 06:04:18;;;;;;;39.58;11.82;;;;;;;;;;5918662;24;20013;-85
2023/12/09 06:15:51;;;;;;;33.33;10.60;;;;;;;;;;6145745;23;20061;-84
2023/12/09 06:18:32;;;;;;;39.80;12.48;;;;;;;;;;6121571;23;20346;-84
2023/12/09 06:21:22;;;;;;;32.53;11.02;;;;;;;;;;6116541;23;20846;-85
2023/12/09 06:24:18;;;;;;;29.50;10.32;;;;;;;;;;6144457;23;20024;-85
2023/12/09 06:27:25;;;;;;;26.35;9.98;;;;;;;;;;6141450;23;20020;-85
2023/12/09 06:30:11;;;;;;;28.10;9.68;;;;;;;;;;6102984;23;20064;-86
2023/12/09 06:36:09;;;;;;;25.30;10.25;;;;;;;;;;6150794;23;20101;-85
2023/12/09 06:39:22;;;;;;;22.52;8.27;;;;;;;;;;6116495;23;20014;-85
2023/12/09 06:42:30;;;;;;;;;;;;;;;;;;;;;
2023/12/09 06:45:16;;;;;;;34.75;10.90;;;;;;;;;;6116351;23;20047;-85
2023/12/09 06:47:55;;;;;;;27.50;9.52;;;;;;;;;;6080364;23;20030;-85
2023/12/09 06:50:47;;;;;;;29.23;9.88;;;;;;;;;;6044309;23;20106;-85
2023/12/09 06:53:25;;;;;;;28.60;9.95;;;;;;;;;;6059748;23;20133;-85
2023/12/09 06:55:53;;;;;;;23.23;9.20;;;;;;;;;;6082936;23;20392;-85
2023/12/09 06:58:36;;;;;;;26.95;8.68;;;;;;;;;;6012209;23;20069;-85
2023/12/09 07:01:03;;;;;;;22.10;8.75;;;;;;;;;;6032657;23;20018;-86
2023/12/09 07:03:31;;;;;;;18.80;8.70;;;;;;;;;;6014180;23;20098;-85
2023/12/09 07:06:23;;;;;;;30.98;9.98;;;;;;;;;;6037619;23;20563;-85
2023/12/09 07:09:14;;;;;;;24.70;8.85;;;;;;;;;;5970057;23;20121;-85
2023/12/09 07:11:41;;;;;;;;;;;;;;;;;;6050997;23;20093;-85
2023/12/09 07:14:15;;;;;;;22.77;8.68;;;;;;;;;;6054279;23;19945;-84
2023/12/09 07:23:05;;;;;;;29.00;9.10;;;;;;;;;;6102822;23;20656;-83
2023/12/09 07:26:12;;;;;;;25.40;7.82;;;;;;;;;;6099756;23;20077;-86
2023/12/09 07:29:07;;;;;;;;;;;;;;;;;;;;;
2023/12/09 07:32:09;;;;;;;24.55;8.32;;;;;;;;;;6133530;23;20020;-86
2023/12/09 07:34:58;;;;;;;20.73;8.15;;;;;;;;;;6065509;23;20325;-85
2023/12/09 07:41:14;;;;;;;21.40;7.18;;;;;;;;;;6008925;23;20033;-86
2023/12/09 07:43:50;;;;;;;20.15;7.35;;;;;;;;;;5954649;23;20015;-85
2023/12/09 07:49:58;;;;;;;20.27;7.22;;;;;;;;;;5972415;23;20024;-86
2023/12/09 07:52:50;;;;;;;13.93;6.88;;;;;;;;;;5947441;23;20054;-86
2023/12/09 07:55:21;;;;;;;21.25;7.32;;;;;;;;;;5929893;23;20357;-85
2023/12/09 07:57:58;;;;;;;15.48;6.70;;;;;;;;;;5949354;23;20030;-86
2023/12/09 08:01:00;;;;;;;22.10;6.43;;;;;;;;;;6010973;23;20786;-86
2023/12/09 08:03:37;;;;;;;20.85;6.63;;;;;;;;;;6002641;23;20021;-86
2023/12/09 08:06:14;;;;;;;16.17;6.15;;;;;;;;;;6022750;23;20034;-86
2023/12/09 08:08:50;;;;;;;10.88;6.15;;;;;;;;;;6028737;23;20046;-86
2023/12/09 08:11:43;;;;;;;;;;;;;;;;;;;;;
2023/12/09 08:14:16;;;;;;;15.27;5.50;;;;;;;;;;6027917;23;20055;-86
2023/12/09 08:16:56;;;;;;;16.33;5.78;;;;;;;;;;6045305;23;20348;-85
2023/12/09 08:22:58;;;;;;;;;;;;;;;;;;6096067;23;20335;-86
2023/12/09 08:34:47;;;;;;;16.60;4.72;;;;;;;;;;6119081;23;20064;-82
2023/12/09 08:37:51;;;;;;;20.65;5.15;;;;;;;;;;6113343;23;20084;-84
2023/12/09 08:40:50;;;;;;;9.30;3.83;;;;;;;;;;5977744;23;20027;-84
2023/12/09 08:43:56;;;;;;;;;;;;;;;;;;;;;
2023/12/09 08:59:31;;;;;;;15.23;3.90;;;;;;;;;;6091440;23;20018;-84
2023/12/09 09:01:58;;;;;;;19.95;4.00;;;;;;;;;;6061404;23;20158;-87
2023/12/09 09:04:29;;;;;;;16.02;3.45;;;;;;;;;;6064098;23;20010;-86
2023/12/09 09:07:22;;;;;;;11.25;3.95;;;;;;;;;;6066163;23;20022;-86
2023/12/09 09:16:51;;;;;;;11.48;3.33;;;;;;;;;;6093913;23;20024;-87
2023/12/09 09:24:03;;;;;;;12.93;3.17;;;;;;;;;;6087135;23;20160;-87
2023/12/09 09:26:52;;;;;;;8.35;3.08;;;;;;;;;;5948114;23;20386;-87
2023/12/09 09:33:30;;;;;;;8.98;3.60;;;;;;;;;;6122845;23;20018;-87
2023/12/09 09:36:15;;;;;;;15.82;3.38;;;;;;;;;;6054840;23;20046;-86
2023/12/09 09:39:09;;;;;;;14.05;3.30;;;;;;;;;;6085419;23;20021;-86
2023/12/09 09:42:25;;;;;;;10.52;3.47;;;;;;;;;;6089442;23;20379;-87
2023/12/09 09:48:13;;;;;;;10.15;2.70;;;;;;;;;;6093183;23;20108;-86
2023/12/09 09:51:36;;;;;;;;;;;;;;;;;;;;;
2023/12/09 09:57:50;;;;;;;;;;;;;;;;;;;;;
2023/12/09 10:01:15;;;;;;;9.32;2.80;;;;;;;;;;6063955;23;20363;-85
2023/12/09 10:04:08;;;;;;;10.27;2.67;;;;;;;;;;6061081;23;20331;-85
2023/12/09 10:22:25;;;;;;;14.77;3.17;;;;;;;;;;6156574;23;20073;-86
2023/12/09 10:29:04;;;;;;;;;;;;;;;;;;;;;
2023/12/09 10:39:02;;;;;;;6.32;2.25;;;;;;;;;;6047569;23;20101;-86
2023/12/09 11:00:18;;;;;;;6.63;2.58;;;;;;;;;;6114496;23;20589;-83
2023/12/09 11:03:13;;;;;;;11.13;2.72;;;;;;;;;;6100839;23;20104;-83
2023/12/09 11:06:28;;;;;;;;;;;;;;;;;;;;;
2023/12/09 11:09:47;;;;;;;7.75;2.70;;;;;;;;;;6138902;23;20036;-83
2023/12/09 11:15:59;;;;;;;8.23;2.47;;;;;;;;;;6149913;23;20028;-85
2023/12/09 11:22:10;;;;;;;6.72;2.45;;;;;;;;;;6120322;23;20021;-84
2023/12/09 11:25:10;;;;;;;8.90;2.30;;;;;;;;;;6091245;23;20449;-84
2023/12/09 11:32:45;;;;;;;;;;;;;;;;;;;;;
2023/12/09 11:40:23;;;;;;;9.27;2.30;;;;;;;;;;6097572;23;20029;-88
2023/12/09 11:42:49;;;;;;;6.30;2.30;;;;;;;;;;6093890;23;20017;-87
2023/12/09 11:45:15;;;;;;;6.57;2.20;;;;;;;;;;6071990;23;20086;-87
2023/12/09 11:47:42;;;;;;;7.63;2.25;;;;;;;;;;6095707;23;20017;-88
2023/12/09 11:50:08;;;;;;;5.18;1.83;;;;;;;;;;6070538;23;20489;-88
2023/12/09 11:52:34;;;;;;;7.18;2.47;;;;;;;;;;6070614;23;20021;-88
2023/12/09 11:55:01;;;;;;;4.15;1.58;;;;;;;;;;6070615;23;20021;-88
2023/12/09 11:57:30;;;;;;;7.22;2.08;;;;;;;;;;6095038;23;20021;-88
2023/12/09 11:59:56;;;;;;;6.05;2.03;;;;;;;;;;6094166;23;20461;-88
2023/12/09 12:02:22;;;;;;;9.32;2.45;;;;;;;;;;6120505;23;20049;-88
2023/12/09 12:04:48;;;;;;;4.32;2.15;;;;;;;;;;6143860;23;20013;-87
2023/12/09 12:07:14;;;;;;;7.07;2.10;;;;;;;;;;6095107;23;20025;-88
2023/12/09 12:09:40;;;;;;;3.78;2.10;;;;;;;;;;6096184;23;20021;-88
2023/12/09 12:12:06;;;;;;;5.13;1.70;;;;;;;;;;6067544;23;20088;-88
2023/12/09 12:14:32;;;;;;;5.95;1.98;;;;;;;;;;6069121;23;20026;-88
2023/12/09 12:17:02;;;;;;;7.43;2.08;;;;;;;;;;6067824;23;20021;-87
2023/12/09 12:19:29;;;;;;;8.50;2.40;;;;;;;;;;6120773;23;20388;-88
2023/12/09 12:21:55;;;;;;;4.68;2.00;;;;;;;;;;6093103;23;20021;-87
2023/12/09 12:24:21;;;;;;;6.30;2.20;;;;;;;;;;6095151;23;20027;-87
2023/12/09 12:26:47;;;;;;;5.97;1.88;;;;;;;;;;6091957;23;20464;-88
2023/12/09 12:29:20;;;;;;;6.85;1.70;;;;;;;;;;6120674;23;20013;-87
2023/12/09 12:31:49;;;;;;;6.35;1.95;;;;;;;;;;6092496;23;20033;-88
2023/12/09 12:34:19;;;;;;;7.88;2.00;;;;;;;;;;6120341;23;20343;-87
2023/12/09 12:36:45;;;;;;;6.45;1.95;;;;;;;;;;6093003;23;20088;-87
2023/12/09 12:39:14;;;;;;;5.40;2.03;;;;;;;;;;6096593;23;20439;-87
2023/12/09 12:41:40;;;;;;;8.25;1.80;;;;;;;;;;6094608;23;20041;-87
2023/12/09 12:44:06;;;;;;;6.78;2.05;;;;;;;;;;6091837;23;20018;-89
2023/12/09 12:46:33;;;;;;;7.25;2.00;;;;;;;;;;6119616;23;20080;-88
2023/12/09 12:48:59;;;;;;;9.35;2.20;;;;;;;;;;6091371;23;20132;-88
2023/12/09 12:51:25;;;;;;;10.25;3.92;;;;;;;;;;6091457;23;20084;-88
2023/12/09 12:53:52;;;;;;;5.97;2.10;;;;;;;;;;6088557;23;20053;-87
2023/12/09 12:56:18;;;;;;;7.68;3.22;;;;;;;;;;6115203;23;20036;-87
2023/12/09 12:58:44;;;;;;;4.65;2.25;;;;;;;;;;6116991;23;20275;-87
2023/12/09 13:01:10;;;;;;;46.63;19.13;;;;;;;;;;6091563;23;20032;-87
2023/12/09 13:03:36;;;;;;;27.63;10.30;;;;;;;;;;6116326;23;20470;-88
2023/12/09 13:06:04;;;;;;;7.63;4.20;;;;;;;;;;6090287;23;20374;-88
2023/12/09 13:08:31;;;;;;;12.32;5.95;;;;;;;;;;6118171;23;20025;-88
2023/12/09 13:10:57;;;;;;;7.50;3.80;;;;;;;;;;6112842;23;20031;-87
2023/12/09 13:13:23;;;;;;;17.33;6.07;;;;;;;;;;6088146;23;20022;-87
2023/12/09 13:15:50;;;;;;;10.60;2.83;;;;;;;;;;6089398;23;20025;-87
2023/12/09 13:18:17;;;;;;;16.13;7.22;;;;;;;;;;6092013;23;20028;-87
2023/12/09 13:20:45;;;;;;;52.63;19.80;;;;;;;;;;6118120;23;20017;-87
2023/12/09 13:23:11;;;;;;;;;;;;;;;;;;6090247;23;20045;-87
2023/12/09 13:25:37;;;;;;;9.30;3.30;;;;;;;;;;6092085;23;19916;-87
2023/12/09 13:28:03;;;;;;;6.25;3.15;;;;;;;;;;6114296;23;20021;-87
2023/12/09 13:30:29;;;;;;;8.68;2.67;;;;;;;;;;6094313;23;20451;-87
2023/12/09 13:33:02;;;;;;;8.00;2.08;;;;;;;;;;6094930;23;20049;-87
2023/12/09 13:35:31;;;;;;;5.57;2.67;;;;;;;;;;6119583;23;20022;-87
2023/12/09 13:37:57;;;;;;;4.57;1.63;;;;;;;;;;6114298;23;20121;-87
2023/12/09 13:40:23;;;;;;;6.28;2.13;;;;;;;;;;6122312;23;20351;-87
2023/12/09 13:42:50;;;;;;;9.40;2.83;;;;;;;;;;6118091;23;20028;-87
2023/12/09 13:45:21;;;;;;;5.93;1.50;;;;;;;;;;6098064;23;20040;-87
2023/12/09 13:47:47;;;;;;;72.13;42.00;;;;;;;;;;6092235;23;20358;-87
2023/12/09 13:50:13;;;;;;;11.85;3.40;;;;;;;;;;6120120;23;20431;-87
2023/12/09 13:52:39;;;;;;;171.40;58.80;;;;;;;;;;6119872;23;20496;-88
2023/12/09 13:55:06;;;;;;;32.22;15.05;;;;;;;;;;6089966;23;20104;-88
2023/12/09 13:57:32;;;;;;;31.92;14.38;;;;;;;;;;6093680;23;20022;-89
2023/12/09 13:59:59;;;;;;;12.25;4.38;;;;;;;;;;6090130;23;20013;-88
2023/12/09 14:02:25;;;;;;;7.05;3.90;;;;;;;;;;6093049;23;20021;-88
2023/12/09 14:04:52;;;;;;;10.32;3.40;;;;;;;;;;6143239;23;20371;-89
2023/12/09 14:07:18;;;;;;;9.70;3.20;;;;;;;;;;6119363;23;20084;-89
2023/12/09 14:09:49;;;;;;;6.95;2.38;;;;;;;;;;6118289;23;20063;-89
2023/12/09 14:12:16;;;;;;;7.28;2.22;;;;;;;;;;6115628;23;20100;-88
2023/12/09 14:14:42;;;;;;;7.90;2.17;;;;;;;;;;6112237;23;20383;-89
2023/12/09 14:17:11;;;;;;;6.93;1.95;;;;;;;;;;6087962;23;20394;-88
2023/12/09 14:19:37;;;;;;;10.98;2.50;;;;;;;;;;6116419;23;20077;-88
2023/12/09 14:22:04;;;;;;;8.70;2.28;;;;;;;;;;6114654;23;20021;-88
2023/12/09 14:24:30;;;;;;;9.65;2.85;;;;;;;;;;6118310;23;20375;-88
2023/12/09 14:26:56;;;;;;;5.75;2.88;;;;;;;;;;6115452;23;20466;-88
2023/12/09 14:29:22;;;;;;;12.00;3.10;;;;;;;;;;6094164;23;20454;-88
2023/12/09 14:31:48;;;;;;;10.85;4.15;;;;;;;;;;6115727;23;20413;-89
2023/12/09 14:34:14;;;;;;;11.05;3.40;;;;;;;;;;6119491;23;20021;-88
2023/12/09 14:36:42;;;;;;;9.50;3.17;;;;;;;;;;6092650;23;20022;-88
2023/12/09 14:39:09;;;;;;;13.45;3.35;;;;;;;;;;6115414;23;20442;-88
2023/12/09 14:41:35;;;;;;;12.55;3.10;;;;;;;;;;6117876;23;20049;-88
2023/12/09 14:44:01;;;;;;;9.27;3.38;;;;;;;;;;6092024;23;20343;-88
2023/12/09 14:46:27;;;;;;;12.13;3.47;;;;;;;;;;6117439;23;20565;-88
2023/12/09 14:48:53;;;;;;;11.38;4.70;;;;;;;;;;6116813;23;20017;-88
2023/12/09 14:51:19;;;;;;;11.43;5.13;;;;;;;;;;6117988;23;20021;-88
2023/12/09 14:53:45;;;;;;;6.70;3.13;;;;;;;;;;6116767;23;20025;-88
2023/12/09 14:56:13;;;;;;;10.88;3.50;;;;;;;;;;6094726;23;20018;-88
2023/12/09 14:58:39;;;;;;;8.43;4.55;;;;;;;;;;6117129;23;20483;-88
2023/12/09 15:01:05;;;;;;;10.77;3.55;;;;;;;;;;6090799;23;20017;-88
2023/12/09 15:03:31;;;;;;;11.85;5.15;;;;;;;;;;6115348;23;20446;-88
2023/12/09 15:05:57;;;;;;;9.73;4.03;;;;;;;;;;6115720;23;20022;-88
2023/12/09 15:08:23;;;;;;;11.82;4.85;;;;;;;;;;6117146;23;20509;-88
2023/12/09 15:10:52;;;;;;;49.60;17.77;;;;;;;;;;6114665;23;20724;-89
2023/12/09 15:13:18;;;;;;;8.70;4.05;;;;;;;;;;6141025;23;20025;-88
2023/12/09 15:15:45;;;;;;;39.92;13.98;;;;;;;;;;6091397;23;20448;-88
2023/12/09 15:18:11;;;;;;;18.58;6.22;;;;;;;;;;6090986;23;20021;-88
2023/12/09 15:20:37;;;;;;;12.02;5.75;;;;;;;;;;6116202;23;20607;-88
2023/12/09 15:23:03;;;;;;;92.40;30.35;;;;;;;;;;6088435;23;20080;-88
2023/12/09 15:25:29;;;;;;;81.22;27.38;;;;;;;;;;6142660;23;20014;-87
2023/12/09 15:27:55;;;;;;;55.85;20.30;;;;;;;;;;6089074;23;20438;-88
2023/12/09 15:30:22;;;;;;;21.80;9.43;;;;;;;;;;6117813;23;20084;-88
2023/12/09 15:32:49;;;;;;;21.13;7.32;;;;;;;;;;6115167;23;20024;-88
2023/12/09 15:35:15;;;;;;;27.85;12.77;;;;;;;;;;6117977;23;20029;-88
2023/12/09 15:37:42;;;;;;;55.25;19.13;;;;;;;;;;6116347;23;20074;-88
2023/12/09 15:40:10;;;;;;;16.92;10.65;;;;;;;;;;6113063;23;20032;-88
2023/12/09 15:42:36;;;;;;;12.77;6.60;;;;;;;;;;6141962;23;20025;-88
2023/12/09 15:45:03;;;;;;;34.65;11.00;;;;;;;;;;6113808;23;20013;-88
2023/12/09 15:47:29;;;;;;;20.73;7.57;;;;;;;;;;6117497;23;20022;-88
2023/12/09 15:49:55;;;;;;;17.80;6.30;;;;;;;;;;6117074;23;20018;-88
2023/12/09 15:52:21;;;;;;;19.52;8.50;;;;;;;;;;6094243;23;20434;-88
2023/12/09 15:54:47;;;;;;;6.85;3.75;;;;;;;;;;6116723;23;20076;-88
2023/12/09 15:57:14;;;;;;;33.95;13.75;;;;;;;;;;6119309;23;20021;-89
2023/12/09 15:59:39;;;;;;;16.25;5.45;;;;;;;;;;6119303;23;20023;-88
2023/12/09 16:02:05;;;;;;;15.90;5.28;;;;;;;;;;6091417;23;20105;-88
2023/12/09 16:04:32;;;;;;;37.20;11.10;;;;;;;;;;6120616;23;20013;-88
2023/12/09 16:06:58;;;;;;;22.15;7.93;;;;;;;;;;6117832;23;20025;-88
2023/12/09 16:09:24;;;;;;;118.45;32.63;;;;;;;;;;6095715;23;20465;-88
2023/12/09 16:11:50;;;;;;;18.30;6.60;;;;;;;;;;6116328;23;20017;-88
2023/12/09 16:14:16;;;;;;;16.92;7.07;;;;;;;;;;6120250;23;20316;-88
2023/12/09 16:16:43;;;;;;;7.38;4.13;;;;;;;;;;6120127;23;20021;-88
2023/12/09 16:19:10;;;;;;;10.50;5.07;;;;;;;;;;6115850;23;20021;-88
2023/12/09 16:21:36;;;;;;;4.30;2.90;;;;;;;;;;6119262;23;20010;-90
2023/12/09 16:24:02;;;;;;;7.45;3.35;;;;;;;;;;6115989;23;20088;-89
2023/12/09 16:26:28;;;;;;;6.28;3.60;;;;;;;;;;6087808;23;20449;-88
2023/12/09 16:28:54;;;;;;;7.15;4.63;;;;;;;;;;6112647;23;20418;-88
2023/12/09 16:31:20;;;;;;;10.18;3.40;;;;;;;;;;6090014;23;20025;-87
2023/12/09 16:33:46;;;;;;;8.27;3.50;;;;;;;;;;6114369;23;20017;-88
2023/12/09 16:36:12;;;;;;;7.53;3.70;;;;;;;;;;6112824;23;20347;-88
2023/12/09 16:38:38;;;;;;;7.72;3.25;;;;;;;;;;6114891;23;20446;-88
2023/12/09 16:41:04;;;;;;;7.53;4.15;;;;;;;;;;6112580;23;20304;-88
2023/12/09 16:43:30;;;;;;;6.95;3.50;;;;;;;;;;6091952;23;20044;-89
2023/12/09 16:45:56;;;;;;;7.47;3.33;;;;;;;;;;6114111;23;20013;-89
2023/12/09 16:48:22;;;;;;;7.47;3.08;;;;;;;;;;6091672;23;20026;-88
2023/12/09 16:50:48;;;;;;;8.00;2.92;;;;;;;;;;6112547;23;20029;-89
2023/12/09 16:53:14;;;;;;;7.43;2.92;;;;;;;;;;6085624;23;20021;-88
2023/12/09 16:55:41;;;;;;;6.18;3.30;;;;;;;;;;6113429;23;20148;-88
2023/12/09 16:58:09;;;;;;;6.35;2.78;;;;;;;;;;6108971;23;20031;-88
2023/12/09 17:00:35;;;;;;;6.10;2.90;;;;;;;;;;6090459;23;20021;-89
2023/12/09 17:03:20;;;;;;;5.78;2.95;;;;;;;;;;6084800;23;20075;-88
2023/12/09 17:06:18;;;;;;;69.95;24.77;;;;;;;;;;6114017;23;20285;-89
2023/12/09 17:09:05;;;;;;;;;;;;;;;;;;;;;
2023/12/09 17:11:53;;;;;;;6.63;3.25;;;;;;;;;;6116635;23;20049;-88
2023/12/09 17:15:01;;;;;;;33.08;10.93;;;;;;;;;;6093005;23;20017;-88
2023/12/09 17:18:25;;;;;;;;;;;;;;;;;;;;;
2023/12/09 17:21:11;;;;;;;18.45;6.50;;;;;;;;;;6131514;23;20316;-88
2023/12/09 17:27:36;;;;;;;;;;;;;;;;;;;;;
2023/12/09 17:30:20;;;;;;;9.80;4.30;;;;;;;;;;6152169;23;20029;-89
2023/12/09 17:32:49;;;;;;;16.25;5.55;;;;;;;;;;6090548;23;20408;-88
2023/12/09 17:35:18;;;;;;;31.48;10.63;;;;;;;;;;6093091;23;20030;-89
2023/12/09 17:50:30;;;;;;;6.40;3.38;;;;;;;;;;6115451;23;20021;-85
2023/12/09 17:59:49;;;;;;;;;;;;;;;;;;;;;
2023/12/09 18:12:08;;;;;;;13.05;10.13;;;;;;;;;;5910888;24;20029;-86
2023/12/09 18:17:59;;;;;;;6.45;3.30;;;;;;;;;;5948897;24;19919;-85
2023/12/09 18:21:04;;;;;;;;;;;;;;;;;;;;;
2023/12/09 18:23:58;;;;;;;3.83;3.53;;;;;;;;;;5867383;24;20071;-87
2023/12/09 18:26:54;;;;;;;4.00;3.00;;;;;;;;;;5887221;24;20155;-85
2023/12/09 18:30:07;;;;;;;4.30;3.00;;;;;;;;;;5894056;24;20029;-85
2023/12/09 18:33:31;;;;;;;;;;;;;;;;;;;;;
2023/12/09 18:36:20;;;;;;;4.07;3.17;;;;;;;;;;5913995;24;20020;-86
2023/12/09 18:39:51;;;;;;;4.38;2.70;;;;;;;;;;6043521;23;20058;-84
2023/12/09 18:46:37;;;;;;;;;;;;;;;;;;;;;
2023/12/09 18:49:11;;;;;;;3.72;2.85;;;;;;;;;;5989312;23;20122;-85
2023/12/09 19:02:03;;;;;;;;;;;;;;;;;;;;;
2023/12/09 20:57:31;;;;;;;15.43;5.70;;;;;;;;;;6097952;23;20455;-84
2023/12/09 21:03:54;;;;;;;;;;;;;;;;;;;;;
2023/12/09 21:07:12;;;;;;;19.52;4.47;;;;;;;;;;6081034;23;20028;-84
2023/12/09 21:17:48;;;;;;;17.90;3.17;;;;;;;;;;6124082;23;20096;-87
2023/12/09 21:21:05;;;;;;;18.17;3.95;;;;;;;;;;6163297;23;20036;-88
2023/12/09 21:23:34;;;;;;;24.75;3.70;;;;;;;;;;6107334;23;20056;-88
2023/12/09 21:29:27;;;;;;;15.90;2.53;;;;;;;;;;6139283;23;20087;-88
2023/12/09 21:32:05;;;;;;;18.35;4.25;;;;;;;;;;6138909;23;20367;-88
2023/12/09 21:52:00;;;;;;;22.60;2.55;;;;;;;;;;6032882;23;20060;-87
2023/12/09 22:26:58;;;;;;;;;;;;;;;;;;;;;
2023/12/09 22:48:00;;;;;;;19.88;3.22;;;;;;;;;;6152105;23;20480;-87
2023/12/09 22:51:16;;;;;;;31.00;3.65;;;;;;;;;;6092951;23;20097;-88
2023/12/09 22:54:09;;;;;;;15.52;2.92;;;;;;;;;;6119388;23;20017;-88
2023/12/09 23:04:07;;;;;;;22.20;3.22;;;;;;;;;;6090115;23;20045;-88
2023/12/09 23:10:21;;;;;;;17.85;3.20;;;;;;;;;;6023337;23;21655;-88
2023/12/09 23:12:47;;;;;;;17.75;2.42;;;;;;;;;;6108475;23;20025;-88
2023/12/09 23:15:14;;;;;;;15.90;2.78;;;;;;;;;;6089460;23;20022;-88
2023/12/09 23:17:40;;;;;;;21.88;3.15;;;;;;;;;;6065153;23;20335;-88
2023/12/09 23:20:06;;;;;;;16.05;2.42;;;;;;;;;;6062614;23;20113;-88
2023/12/09 23:22:35;;;;;;;16.90;3.45;;;;;;;;;;6113476;23;20025;-88
2023/12/09 23:25:01;;;;;;;17.50;3.85;;;;;;;;;;6063583;23;20033;-88
2023/12/09 23:27:27;;;;;;;17.42;2.70;;;;;;;;;;6063730;23;20101;-88
2023/12/09 23:29:53;;;;;;;19.92;2.95;;;;;;;;;;6063140;23;20021;-88
2023/12/09 23:32:19;;;;;;;15.13;2.20;;;;;;;;;;6064490;23;20374;-88
2023/12/09 23:34:45;;;;;;;15.25;2.47;;;;;;;;;;6086867;23;20014;-88
2023/12/09 23:37:11;;;;;;;22.42;3.90;;;;;;;;;;6063907;23;20056;-88
2023/12/09 23:39:38;;;;;;;18.58;3.15;;;;;;;;;;6063575;23;20022;-88
2023/12/09 23:42:04;;;;;;;15.35;3.10;;;;;;;;;;6061142;23;20032;-88
2023/12/09 23:44:30;;;;;;;17.05;2.95;;;;;;;;;;6064999;23;20109;-88
2023/12/09 23:46:56;;;;;;;22.05;2.95;;;;;;;;;;6108785;23;20014;-88
2023/12/09 23:49:23;;;;;;;15.10;3.08;;;;;;;;;;6065494;23;20481;-88
2023/12/09 23:51:49;;;;;;;13.13;2.50;;;;;;;;;;6085912;23;20053;-88
2023/12/09 23:54:15;;;;;;;20.95;3.58;;;;;;;;;;6112664;23;20092;-88
2023/12/09 23:56:41;;;;;;;25.02;3.33;;;;;;;;;;6087748;23;20026;-88
2023/12/09 23:59:07;;;;;;;19.83;3.05;;;;;;;;;;6062038;23;20013;-88
